Terminal Aerodrome Forecast
Issued by NWS Cleveland, OH

Home | Current Version | Previous Version | Text Only | Print | Product List | Glossary On
Versions: 1 2 3 4 5 6 7 8 9 10 11 12 13 14 15 16 17 18 19 20 21 22
000
FTUS41 KCLE 292300
TAFYNG
TAF
KYNG 292335Z 3000/3024 13005KT P6SM BKN250
     FM301000 15008KT P6SM SCT120 BKN250
     FM301600 20012G18KT P6SM SCT060 BKN120=

USA.gov is the U.S. government's official web portal to all federal, state and local government web resources and services.